Time;durP1;ratioP1;P1;durP2;ratioP2;P2;SDS_P1;SDS_P2;PMS_P1;PMS_P2;Temp;Humidity;BMP_temperature;BMP_pressure;BME280_temperature;BME280_humidity;BME280_pressure;Samples;Min_cycle;Max_cycle;Signal;HPM_P1;HPM_P2
2022/03/22 00:00:40;;;;;;;26.52;18.15;;;2.30;99.90;;;;;;5055279;28;20126;-76
2022/03/22 00:03:09;;;;;;;33.55;19.08;;;2.30;99.90;;;;;;5043647;28;20098;-77
2022/03/22 00:05:39;;;;;;;30.20;17.27;;;2.20;99.90;;;;;;5069643;28;20059;-76
2022/03/22 00:08:08;;;;;;;34.28;18.05;;;2.20;99.90;;;;;;5051647;28;20577;-77
2022/03/22 00:10:36;;;;;;;33.38;19.08;;;2.20;99.90;;;;;;5036020;28;20056;-76
2022/03/22 00:13:05;;;;;;;29.88;18.50;;;2.20;99.90;;;;;;5072222;28;20059;-76
2022/03/22 00:15:33;;;;;;;39.40;19.85;;;2.20;99.90;;;;;;5050309;28;20044;-76
2022/03/22 00:18:02;;;;;;;38.35;19.65;;;2.20;99.90;;;;;;5033868;28;20049;-74
2022/03/22 00:20:30;;;;;;;31.25;18.45;;;2.20;99.90;;;;;;5048903;28;20049;-75
2022/03/22 00:22:58;;;;;;;25.88;17.08;;;2.20;99.90;;;;;;5054963;28;20135;-75
2022/03/22 00:25:26;;;;;;;25.33;15.73;;;2.20;99.90;;;;;;5054092;28;20063;-75
2022/03/22 00:27:53;;;;;;;28.65;16.15;;;2.20;99.90;;;;;;5054277;28;20040;-75
2022/03/22 00:30:23;;;;;;;25.20;15.07;;;2.20;99.90;;;;;;5035502;28;20534;-76
2022/03/22 00:32:54;;;;;;;27.85;16.55;;;2.30;99.90;;;;;;5041120;28;20528;-76
2022/03/22 00:35:24;;;;;;;34.17;15.82;;;2.30;99.90;;;;;;5036525;28;20516;-76
2022/03/22 00:37:53;;;;;;;24.35;14.68;;;2.30;99.90;;;;;;5053671;28;20052;-76
2022/03/22 00:40:22;;;;;;;33.00;15.40;;;2.30;99.90;;;;;;5035459;28;20139;-76
2022/03/22 00:42:53;;;;;;;22.30;15.38;;;2.30;99.90;;;;;;5058965;28;20139;-77
2022/03/22 00:45:23;;;;;;;24.10;15.38;;;2.30;99.90;;;;;;5063582;28;20076;-76
2022/03/22 00:47:53;;;;;;;23.80;15.48;;;2.20;99.90;;;;;;5055294;28;20049;-75
2022/03/22 00:50:26;;;;;;;22.83;13.63;;;2.20;99.90;;;;;;5072892;28;20060;-75
2022/03/22 00:52:54;;;;;;;31.05;15.07;;;2.20;99.90;;;;;;5030221;28;20135;-74
2022/03/22 00:55:23;;;;;;;23.90;14.27;;;2.20;99.90;;;;;;5054677;28;20041;-75
2022/03/22 00:57:52;;;;;;;24.25;14.73;;;2.20;99.90;;;;;;5053257;28;20048;-76
2022/03/22 01:00:24;;;;;;;27.65;15.23;;;2.20;99.90;;;;;;5054192;28;20135;-75
2022/03/22 01:02:54;;;;;;;27.02;15.52;;;2.20;99.90;;;;;;5056592;28;20058;-74
2022/03/22 01:05:26;;;;;;;27.25;15.82;;;2.20;99.90;;;;;;5028630;28;20584;-76
2022/03/22 01:07:56;;;;;;;21.15;14.52;;;2.20;99.90;;;;;;5047400;28;20045;-76
2022/03/22 01:10:27;;;;;;;26.63;14.70;;;2.10;99.90;;;;;;5068950;28;20052;-77
2022/03/22 01:12:54;;;;;;;24.40;14.38;;;2.20;99.90;;;;;;5056538;28;20123;-76
2022/03/22 01:15:23;;;;;;;21.17;14.43;;;2.10;99.90;;;;;;5048911;28;20052;-75
2022/03/22 01:17:54;;;;;;;27.52;13.48;;;2.20;99.90;;;;;;5036753;28;20057;-76
2022/03/22 01:20:25;;;;;;;23.80;13.77;;;2.20;99.90;;;;;;5051315;28;20049;-75
2022/03/22 01:22:54;;;;;;;25.60;14.30;;;2.20;99.90;;;;;;5056590;28;20055;-75
2022/03/22 01:25:25;;;;;;;24.50;15.45;;;2.10;99.90;;;;;;5043768;28;20405;-75
2022/03/22 01:27:54;;;;;;;24.83;13.93;;;2.20;99.90;;;;;;5070656;28;20044;-76
2022/03/22 01:30:24;;;;;;;20.80;13.70;;;2.10;99.90;;;;;;5035103;28;20147;-76
2022/03/22 01:32:54;;;;;;;25.15;14.25;;;2.10;99.90;;;;;;5056578;28;20057;-76
2022/03/22 01:35:25;;;;;;;21.30;12.82;;;2.10;99.90;;;;;;5045553;28;20486;-76
2022/03/22 01:37:56;;;;;;;29.52;14.82;;;2.10;99.90;;;;;;5051470;28;20045;-75
2022/03/22 01:40:26;;;;;;;25.58;13.82;;;2.10;99.90;;;;;;5034967;28;20052;-75
2022/03/22 01:42:54;;;;;;;22.08;13.63;;;2.10;99.90;;;;;;5058188;28;20056;-76
2022/03/22 01:45:21;;;;;;;22.38;14.00;;;2.10;99.90;;;;;;5037860;28;20049;-76
2022/03/22 01:47:50;;;;;;;23.17;13.60;;;2.10;99.90;;;;;;5055342;28;20052;-75
2022/03/22 01:50:20;;;;;;;23.95;13.15;;;2.10;99.90;;;;;;5050575;28;20040;-77
2022/03/22 01:52:49;;;;;;;21.67;13.40;;;2.10;99.90;;;;;;5034057;28;20139;-76
2022/03/22 01:55:20;;;;;;;19.70;12.57;;;2.10;99.90;;;;;;5018912;28;20095;-76
2022/03/22 01:57:48;;;;;;;24.73;13.18;;;2.10;99.90;;;;;;5050466;28;20052;-76
2022/03/22 02:00:18;;;;;;;25.65;13.45;;;2.00;99.90;;;;;;5048156;28;20420;-76
2022/03/22 02:05:52;;;;;;;20.90;13.38;;;2.00;99.90;;;;;;5043067;28;20115;-77
2022/03/22 02:08:25;;;;;;;23.58;12.65;;;2.00;99.90;;;;;;5033612;28;20539;-76
2022/03/22 02:10:55;;;;;;;23.48;13.57;;;2.00;99.90;;;;;;5017139;28;20148;-76
2022/03/22 02:13:23;;;;;;;24.25;12.65;;;1.90;99.90;;;;;;5053183;28;20053;-76
2022/03/22 02:15:55;;;;;;;22.77;12.55;;;1.90;99.90;;;;;;5055817;28;20114;-75
2022/03/22 02:18:24;;;;;;;25.70;13.07;;;1.90;99.90;;;;;;5030864;28;20048;-76
2022/03/22 02:20:51;;;;;;;20.48;12.68;;;1.90;99.90;;;;;;5035424;28;20046;-75
2022/03/22 02:23:25;;;;;;;28.75;13.75;;;1.90;99.90;;;;;;5047872;28;20055;-76
2022/03/22 02:25:54;;;;;;;21.38;13.23;;;1.90;99.90;;;;;;5069798;28;20467;-76
2022/03/22 02:28:22;;;;;;;23.35;13.23;;;1.90;99.90;;;;;;5066122;28;20143;-77
2022/03/22 02:30:50;;;;;;;18.05;12.70;;;1.80;99.90;;;;;;5050945;28;20539;-76
2022/03/22 02:33:18;;;;;;;21.75;13.63;;;1.90;99.90;;;;;;5052611;28;20049;-76
2022/03/22 02:35:46;;;;;;;25.02;13.32;;;1.80;99.90;;;;;;5033249;28;20057;-77
2022/03/22 02:38:14;;;;;;;23.15;13.95;;;1.80;99.90;;;;;;5052552;28;20040;-74
2022/03/22 02:40:41;;;;;;;20.90;12.90;;;1.80;99.90;;;;;;5028011;28;20491;-76
2022/03/22 02:43:10;;;;;;;20.20;12.98;;;1.80;99.90;;;;;;5052226;28;20135;-76
2022/03/22 02:45:38;;;;;;;23.40;13.60;;;1.80;99.90;;;;;;5040282;28;20538;-77
2022/03/22 02:48:06;;;;;;;20.98;13.73;;;1.80;99.90;;;;;;5057509;28;20072;-77
2022/03/22 02:50:33;;;;;;;26.15;13.63;;;1.80;99.90;;;;;;5032345;28;20049;-76
2022/03/22 02:53:01;;;;;;;26.35;14.73;;;1.80;99.90;;;;;;5070088;28;20091;-76
2022/03/22 02:55:29;;;;;;;30.10;15.32;;;1.70;99.90;;;;;;5065081;28;20083;-76
2022/03/22 02:57:57;;;;;;;28.80;15.32;;;1.70;99.90;;;;;;5026947;28;20041;-77
2022/03/22 03:00:26;;;;;;;27.58;14.70;;;1.80;99.90;;;;;;5049858;28;20135;-75
2022/03/22 03:02:54;;;;;;;30.27;15.85;;;1.70;99.90;;;;;;5067697;28;20086;-76
2022/03/22 03:05:22;;;;;;;22.65;13.43;;;1.70;99.90;;;;;;5059692;28;20045;-76
2022/03/22 03:07:50;;;;;;;23.98;14.25;;;1.70;99.90;;;;;;5049536;28;20119;-75
2022/03/22 03:10:18;;;;;;;26.60;15.00;;;1.70;99.90;;;;;;5044794;28;20067;-75
2022/03/22 03:12:46;;;;;;;25.80;14.63;;;1.70;99.90;;;;;;5031866;28;20037;-74
2022/03/22 03:15:13;;;;;;;27.30;13.48;;;1.70;99.90;;;;;;5064107;28;20041;-76
2022/03/22 03:17:42;;;;;;;27.38;14.20;;;1.70;99.90;;;;;;5006969;28;20048;-74
2022/03/22 03:20:11;;;;;;;26.85;14.88;;;1.70;99.90;;;;;;5036058;28;20049;-76
2022/03/22 03:22:38;;;;;;;23.83;13.73;;;1.70;99.90;;;;;;5036498;28;20147;-76
2022/03/22 03:25:08;;;;;;;27.98;15.40;;;1.60;99.90;;;;;;5064259;28;20049;-75
2022/03/22 03:27:36;;;;;;;27.23;14.70;;;1.60;99.90;;;;;;5019429;28;20095;-75
2022/03/22 03:30:06;;;;;;;25.02;15.52;;;1.60;99.90;;;;;;5036499;28;20111;-75
2022/03/22 03:32:35;;;;;;;30.50;15.35;;;1.60;99.90;;;;;;5044766;28;20044;-75
2022/03/22 03:35:05;;;;;;;25.55;14.10;;;1.60;99.90;;;;;;5072509;28;20091;-74
2022/03/22 03:37:34;;;;;;;28.55;15.43;;;1.60;99.90;;;;;;5041675;28;20421;-77
2022/03/22 03:40:02;;;;;;;28.02;14.85;;;1.50;99.90;;;;;;5055351;28;20049;-77
2022/03/22 03:42:31;;;;;;;27.20;14.82;;;1.50;99.90;;;;;;5063905;28;20139;-77
2022/03/22 03:47:44;;;;;;;26.77;16.65;;;1.50;99.90;;;;;;5053078;28;20057;-77
2022/03/22 03:50:12;;;;;;;24.17;15.10;;;1.50;99.90;;;;;;5026206;28;20051;-76
2022/03/22 03:52:40;;;;;;;29.40;15.80;;;1.50;99.90;;;;;;5051422;28;20083;-76
2022/03/22 03:55:10;;;;;;;24.58;14.82;;;1.40;99.90;;;;;;5056385;28;20041;-77
2022/03/22 03:57:38;;;;;;;23.13;14.63;;;1.50;99.90;;;;;;5036274;28;20052;-76
2022/03/22 04:00:08;;;;;;;29.02;16.00;;;1.50;99.90;;;;;;5049337;28;20047;-75
2022/03/22 04:02:43;;;;;;;24.13;14.50;;;1.40;99.90;;;;;;5050328;28;20135;-76
2022/03/22 04:05:12;;;;;;;27.30;15.07;;;1.40;99.90;;;;;;5033580;28;20045;-77
2022/03/22 04:07:40;;;;;;;25.08;15.00;;;1.50;99.90;;;;;;5067616;28;20041;-77
2022/03/22 04:10:09;;;;;;;29.25;14.68;;;1.50;99.90;;;;;;5070175;28;20136;-76
2022/03/22 04:12:42;;;;;;;29.25;14.65;;;1.50;99.90;;;;;;5042905;28;20055;-77
2022/03/22 04:15:09;;;;;;;;;;;1.50;99.90;;;;;;5038657;28;20513;-76
2022/03/22 04:17:38;;;;;;;29.92;16.27;;;1.50;99.90;;;;;;5028029;28;19925;-76
2022/03/22 04:20:07;;;;;;;33.15;16.85;;;1.40;99.90;;;;;;5044717;28;20048;-76
2022/03/22 04:22:36;;;;;;;23.02;14.02;;;1.40;99.90;;;;;;5060524;28;20496;-75
2022/03/22 04:25:04;;;;;;;30.30;14.57;;;1.40;99.90;;;;;;5055837;28;20040;-76
2022/03/22 04:33:02;;;;;;;26.27;15.13;;;1.50;99.90;;;;;;5065609;28;20044;-76
2022/03/22 04:35:29;;;;;;;24.45;14.77;;;1.50;99.90;;;;;;5053954;28;20139;-69
2022/03/22 04:37:58;;;;;;;29.90;16.38;;;1.50;99.90;;;;;;5062066;28;20476;-70
2022/03/22 04:40:26;;;;;;;28.73;16.13;;;1.60;99.90;;;;;;5017784;28;20041;-69
2022/03/22 04:42:54;;;;;;;26.65;15.10;;;1.60;99.90;;;;;;5066432;28;20501;-68
2022/03/22 04:45:21;;;;;;;24.65;15.00;;;1.60;99.90;;;;;;5043706;28;20135;-69
2022/03/22 04:47:49;;;;;;;28.67;14.35;;;1.60;99.90;;;;;;5063106;28;20049;-69
2022/03/22 04:50:18;;;;;;;23.77;14.07;;;1.60;99.90;;;;;;5045619;28;20416;-69
2022/03/22 04:58:19;;;;;;;30.92;15.05;;;1.70;99.90;;;;;;5033442;28;20377;-70
2022/03/22 05:00:48;;;;;;;24.55;13.75;;;1.70;99.90;;;;;;5055321;28;20136;-69
2022/03/22 05:03:16;;;;;;;25.30;15.15;;;1.70;99.90;;;;;;5052365;28;20080;-70
2022/03/22 05:08:28;;;;;;;28.70;15.00;;;1.80;99.90;;;;;;5058962;28;20467;-75
2022/03/22 05:10:59;;;;;;;27.58;16.60;;;1.80;99.90;;;;;;5057110;28;20466;-77
2022/03/22 05:13:26;;;;;;;30.27;15.10;;;1.80;99.90;;;;;;5058779;28;20143;-76
2022/03/22 05:15:54;;;;;;;25.92;15.20;;;1.90;99.90;;;;;;5054641;28;20044;-76
2022/03/22 05:18:22;;;;;;;27.08;16.17;;;2.00;99.90;;;;;;5026773;28;20055;-75
2022/03/22 05:20:49;;;;;;;25.42;15.68;;;2.00;99.90;;;;;;5048371;28;20170;-74
2022/03/22 05:23:18;;;;;;;37.35;16.63;;;2.00;99.90;;;;;;5043583;28;20045;-74
2022/03/22 05:25:46;;;;;;;27.70;15.88;;;2.10;99.90;;;;;;5032573;28;20164;-75
2022/03/22 05:28:15;;;;;;;26.02;15.68;;;2.10;99.90;;;;;;5038715;28;20444;-70
2022/03/22 05:30:42;;;;;;;28.60;15.63;;;2.10;99.90;;;;;;5037627;28;20045;-76
2022/03/22 05:33:10;;;;;;;27.23;17.20;;;2.20;99.90;;;;;;5001213;28;20067;-77
2022/03/22 05:35:39;;;;;;;23.95;15.40;;;2.30;99.90;;;;;;5050842;28;20076;-76
2022/03/22 05:38:08;;;;;;;31.90;16.77;;;2.40;99.90;;;;;;5027647;28;20052;-76
2022/03/22 05:40:38;;;;;;;28.55;16.00;;;2.40;99.90;;;;;;5031702;28;20053;-77
2022/03/22 05:43:05;;;;;;;27.95;15.85;;;2.40;99.90;;;;;;5051602;28;20051;-70
2022/03/22 05:45:34;;;;;;;33.47;17.52;;;2.50;99.90;;;;;;5052243;28;20057;-76
2022/03/22 05:48:01;;;;;;;32.42;17.33;;;2.50;99.90;;;;;;5034196;28;20147;-77
2022/03/22 05:50:29;;;;;;;32.15;16.10;;;2.50;99.90;;;;;;5051571;28;20057;-78
2022/03/22 05:52:57;;;;;;;28.75;16.38;;;2.60;99.90;;;;;;5051524;28;20089;-78
2022/03/22 05:55:24;;;;;;;27.02;16.52;;;2.60;99.90;;;;;;5033907;28;20448;-70
2022/03/22 05:57:52;;;;;;;33.88;16.83;;;2.60;99.90;;;;;;5017174;28;20045;-70
2022/03/22 06:00:19;;;;;;;32.17;16.90;;;2.60;99.90;;;;;;5047483;28;20052;-68
2022/03/22 06:02:48;;;;;;;31.00;17.75;;;2.70;99.90;;;;;;5033834;28;20472;-76
2022/03/22 06:05:16;;;;;;;26.92;16.75;;;2.70;99.90;;;;;;5027451;28;20045;-75
2022/03/22 06:07:44;;;;;;;34.15;16.92;;;2.80;99.90;;;;;;5049591;28;20053;-76
2022/03/22 06:10:13;;;;;;;31.10;17.85;;;2.80;99.90;;;;;;5042997;28;20124;-76
2022/03/22 06:12:44;;;;;;;37.30;18.10;;;2.90;99.90;;;;;;5052696;28;20045;-75
2022/03/22 06:15:18;;;;;;;30.45;18.15;;;2.90;99.90;;;;;;5033263;28;20045;-76
2022/03/22 06:17:49;;;;;;;31.08;15.85;;;3.00;99.90;;;;;;5046315;28;20144;-75
2022/03/22 06:20:18;;;;;;;34.40;16.63;;;3.10;99.90;;;;;;5047934;28;20106;-76
2022/03/22 06:22:47;;;;;;;32.53;16.50;;;3.10;99.90;;;;;;5050477;28;20049;-76
2022/03/22 06:25:15;;;;;;;32.03;17.55;;;3.20;99.90;;;;;;5033821;28;20051;-76
2022/03/22 06:27:44;;;;;;;28.98;16.48;;;3.30;99.90;;;;;;5050788;28;20053;-76
2022/03/22 06:30:13;;;;;;;29.73;16.58;;;3.40;99.90;;;;;;5048594;28;20052;-78
2022/03/22 06:32:42;;;;;;;29.65;16.75;;;3.50;99.90;;;;;;5026070;28;20053;-69
2022/03/22 06:35:11;;;;;;;32.55;17.20;;;3.50;99.90;;;;;;5046858;28;20044;-75
2022/03/22 06:37:39;;;;;;;34.35;16.42;;;3.60;99.90;;;;;;5027368;28;20053;-76
2022/03/22 06:40:08;;;;;;;31.45;16.92;;;3.60;99.90;;;;;;5028394;28;20045;-78
2022/03/22 06:42:37;;;;;;;29.38;16.58;;;3.60;99.90;;;;;;5011159;28;20084;-75
2022/03/22 06:45:07;;;;;;;35.47;16.45;;;3.70;99.90;;;;;;5050459;28;20390;-75
2022/03/22 06:47:35;;;;;;;32.80;18.60;;;3.80;99.90;;;;;;5050533;28;20519;-75
2022/03/22 06:50:05;;;;;;;31.27;17.40;;;3.90;99.90;;;;;;5046834;28;20063;-71
2022/03/22 06:52:34;;;;;;;30.45;17.23;;;4.20;99.90;;;;;;5049261;28;20045;-76
2022/03/22 06:55:01;;;;;;;35.85;18.38;;;5.10;99.90;;;;;;5048405;28;20505;-75
2022/03/22 06:57:31;;;;;;;31.10;18.45;;;6.20;99.90;;;;;;5048726;28;20072;-75
2022/03/22 07:00:00;;;;;;;28.52;18.73;;;7.30;99.90;;;;;;5047182;28;20048;-77
2022/03/22 07:02:27;;;;;;;30.05;17.48;;;8.30;99.90;;;;;;5050286;28;20041;-76
2022/03/22 07:04:55;;;;;;;28.50;17.80;;;9.10;99.90;;;;;;5049239;28;20048;-74
2022/03/22 07:07:23;;;;;;;33.42;19.45;;;9.70;99.90;;;;;;5048629;28;20473;-75
2022/03/22 07:09:52;;;;;;;33.20;17.90;;;10.10;99.90;;;;;;5036621;28;20551;-76
2022/03/22 07:12:19;;;;;;;27.67;18.65;;;10.60;99.90;;;;;;5046213;28;20048;-76
2022/03/22 07:14:46;;;;;;;29.75;19.60;;;11.10;99.90;;;;;;5042117;28;20045;-75
2022/03/22 07:17:15;;;;;;;35.03;18.58;;;11.40;99.20;;;;;;5043712;28;20062;-76
2022/03/22 07:19:42;;;;;;;36.28;19.42;;;11.80;96.60;;;;;;5048390;28;20045;-76
2022/03/22 07:22:10;;;;;;;34.97;18.67;;;12.40;93.00;;;;;;5030694;28;20045;-77
2022/03/22 07:24:38;;;;;;;30.00;19.52;;;12.80;88.80;;;;;;5014378;28;20076;-76
2022/03/22 07:27:07;;;;;;;29.77;17.23;;;13.10;84.80;;;;;;5048579;28;20670;-76
2022/03/22 07:29:34;;;;;;;27.10;19.17;;;13.30;79.20;;;;;;5028367;28;20107;-76
2022/03/22 07:32:02;;;;;;;24.70;19.27;;;13.50;78.30;;;;;;5025328;28;20037;-76
2022/03/22 07:34:31;;;;;;;32.58;18.60;;;13.70;75.60;;;;;;5048036;28;20056;-76
2022/03/22 07:36:59;;;;;;;32.95;19.25;;;14.00;73.80;;;;;;5049385;28;20048;-76
2022/03/22 07:39:27;;;;;;;31.45;17.77;;;14.00;71.80;;;;;;5033515;28;20064;-76
2022/03/22 07:41:54;;;;;;;28.30;18.25;;;14.10;73.20;;;;;;5049780;28;20543;-76
2022/03/22 07:44:24;;;;;;;27.98;18.35;;;14.50;69.30;;;;;;5032141;28;20382;-75
2022/03/22 07:46:51;;;;;;;28.15;17.00;;;14.70;68.00;;;;;;5023442;28;20041;-76
2022/03/22 07:54:49;;;;;;;31.08;17.85;;;15.60;62.50;;;;;;5029890;28;20050;-76
2022/03/22 07:57:17;;;;;;;29.92;18.00;;;15.80;62.30;;;;;;5012245;28;20049;-77
2022/03/22 07:59:46;;;;;;;31.90;19.20;;;15.80;61.40;;;;;;5003197;28;20386;-70
2022/03/22 08:02:13;;;;;;;29.90;18.83;;;15.60;61.10;;;;;;5049502;28;20041;-69
2022/03/22 08:04:40;;;;;;;31.38;18.45;;;15.40;62.50;;;;;;5034812;28;20060;-69
2022/03/22 08:07:09;;;;;;;22.63;16.30;;;15.40;61.70;;;;;;5031454;28;20141;-69
2022/03/22 08:09:37;;;;;;;29.92;16.58;;;15.60;61.40;;;;;;5052143;28;20057;-70
2022/03/22 08:12:06;;;;;;;28.77;17.33;;;16.00;60.40;;;;;;5035559;28;20057;-69
2022/03/22 08:14:33;;;;;;;27.02;15.43;;;16.40;58.80;;;;;;5035481;28;20423;-69
2022/03/22 08:17:02;;;;;;;30.75;16.80;;;16.60;57.90;;;;;;5053748;28;20045;-70
2022/03/22 08:19:29;;;;;;;25.30;15.50;;;17.10;57.10;;;;;;5051465;28;20055;-70
2022/03/22 08:21:57;;;;;;;24.63;15.15;;;17.40;56.10;;;;;;5035913;28;20331;-69
2022/03/22 08:24:25;;;;;;;24.60;15.05;;;17.50;55.40;;;;;;5053152;28;20053;-69
2022/03/22 08:26:52;;;;;;;30.17;14.38;;;17.70;55.00;;;;;;5052898;28;20045;-76
2022/03/22 08:29:20;;;;;;;32.28;15.85;;;17.90;54.30;;;;;;5052503;28;20517;-77
2022/03/22 08:31:47;;;;;;;23.60;15.88;;;18.30;53.70;;;;;;5035575;28;20076;-76
2022/03/22 08:34:16;;;;;;;24.70;15.93;;;18.40;53.10;;;;;;5035849;28;20065;-76
2022/03/22 08:36:44;;;;;;;22.60;14.55;;;18.40;52.60;;;;;;5051042;28;20041;-77
2022/03/22 08:39:11;;;;;;;24.40;15.07;;;18.80;51.80;;;;;;5053296;28;20049;-77
2022/03/22 08:41:39;;;;;;;25.30;15.23;;;18.90;51.60;;;;;;5018604;28;20528;-76
2022/03/22 08:44:07;;;;;;;22.70;15.18;;;19.00;51.40;;;;;;5052452;28;20052;-76
2022/03/22 08:46:36;;;;;;;18.52;13.88;;;19.10;51.20;;;;;;5051303;28;20485;-77
2022/03/22 08:49:05;;;;;;;25.38;13.73;;;19.50;50.50;;;;;;5051704;28;20147;-73
2022/03/22 08:51:34;;;;;;;16.90;12.98;;;19.90;49.40;;;;;;5051706;28;20045;-76
2022/03/22 08:54:01;;;;;;;24.77;13.63;;;20.40;48.50;;;;;;5051196;28;20056;-76
2022/03/22 08:56:29;;;;;;;24.80;13.15;;;20.50;48.00;;;;;;5050122;28;20102;-74
2022/03/22 08:58:56;;;;;;;23.58;14.05;;;20.60;47.40;;;;;;5052056;28;20119;-75
2022/03/22 09:01:27;;;;;;;23.30;14.98;;;20.60;47.00;;;;;;5049209;28;20041;-77
2022/03/22 09:06:41;;;;;;;23.95;13.60;;;20.20;47.80;;;;;;5050256;28;20053;-75
2022/03/22 09:09:10;;;;;;;25.15;13.63;;;20.10;47.60;;;;;;5052066;28;20135;-75
2022/03/22 09:11:37;;;;;;;25.48;13.50;;;19.90;48.30;;;;;;5053539;28;20044;-75
2022/03/22 09:14:05;;;;;;;29.83;14.73;;;20.20;47.90;;;;;;5034288;28;20547;-76
2022/03/22 09:16:34;;;;;;;21.92;13.70;;;20.70;47.50;;;;;;5053483;28;20048;-76
2022/03/22 09:19:01;;;;;;;26.98;14.57;;;20.70;47.10;;;;;;5049974;28;20048;-70
2022/03/22 09:21:29;;;;;;;31.42;15.05;;;20.50;47.20;;;;;;5034960;28;20041;-70
2022/03/22 09:23:58;;;;;;;24.85;13.68;;;20.70;47.50;;;;;;5036699;28;20072;-70
2022/03/22 09:26:26;;;;;;;22.48;14.35;;;20.80;47.00;;;;;;5050188;28;20064;-70
2022/03/22 09:28:53;;;;;;;32.83;19.05;;;21.10;46.50;;;;;;5051079;28;20052;-71
2022/03/22 09:31:23;;;;;;;19.20;12.15;;;21.50;46.40;;;;;;5051956;28;20060;-70
2022/03/22 09:33:51;;;;;;;22.83;13.88;;;21.60;45.00;;;;;;5048542;28;20068;-70
2022/03/22 09:36:19;;;;;;;17.95;13.68;;;21.50;45.10;;;;;;5050847;28;20053;-70
2022/03/22 09:38:48;;;;;;;18.33;13.40;;;21.60;45.50;;;;;;5051364;28;20049;-69
2022/03/22 09:41:18;;;;;;;28.92;14.45;;;21.60;45.00;;;;;;5032084;28;20045;-69
2022/03/22 09:43:48;;;;;;;18.67;13.18;;;21.50;44.20;;;;;;5051249;28;20063;-70
2022/03/22 09:46:18;;;;;;;24.73;12.52;;;21.20;44.90;;;;;;5033892;28;20132;-69
2022/03/22 09:48:47;;;;;;;20.10;13.02;;;20.70;45.60;;;;;;5031505;28;20072;-70
2022/03/22 09:54:00;;;;;;;24.63;12.45;;;20.20;46.60;;;;;;5031569;28;20429;-70
2022/03/22 09:56:30;;;;;;;18.92;12.18;;;19.50;47.40;;;;;;5031067;28;20060;-70
2022/03/22 09:58:59;;;;;;;20.48;13.20;;;18.90;48.10;;;;;;5031502;28;20054;-69
2022/03/22 10:01:28;;;;;;;16.58;13.48;;;18.80;49.20;;;;;;5033741;28;20133;-68
2022/03/22 10:03:58;;;;;;;29.38;14.65;;;18.50;49.90;;;;;;5044115;28;20064;-70
2022/03/22 10:06:26;;;;;;;20.38;13.25;;;18.30;50.40;;;;;;5051206;28;20139;-69
2022/03/22 10:08:53;;;;;;;22.20;13.13;;;18.30;49.80;;;;;;5051176;28;20136;-70
2022/03/22 10:11:21;;;;;;;22.13;13.15;;;18.60;49.30;;;;;;5050994;28;20056;-69
2022/03/22 10:13:54;;;;;;;31.83;13.82;;;19.40;48.70;;;;;;5051174;28;20427;-70
2022/03/22 10:16:22;;;;;;;26.42;13.55;;;20.00;47.60;;;;;;5051057;28;20139;-70
2022/03/22 10:18:50;;;;;;;20.00;12.88;;;20.70;46.70;;;;;;5050269;28;20057;-70
2022/03/22 10:21:18;;;;;;;21.50;14.15;;;21.30;45.80;;;;;;5050319;28;20099;-69
2022/03/22 10:23:50;;;;;;;23.42;13.18;;;21.80;45.50;;;;;;5052114;28;20509;-71
2022/03/22 10:26:18;;;;;;;22.20;14.35;;;22.10;45.10;;;;;;5055755;28;20587;-69
2022/03/22 10:28:55;;;;;;;25.42;14.30;;;22.20;43.90;;;;;;5049338;28;20044;-69
2022/03/22 10:31:33;;;;;;;26.52;14.38;;;22.60;43.90;;;;;;5050414;28;20049;-70
2022/03/22 10:34:02;;;;;;;23.92;13.80;;;22.80;43.30;;;;;;5051376;28;20058;-78
2022/03/22 10:36:29;;;;;;;26.33;13.82;;;22.70;43.30;;;;;;5032794;28;20064;-76
2022/03/22 10:39:04;;;;;;;20.15;13.27;;;22.10;42.80;;;;;;5038479;28;20049;-77
2022/03/22 10:41:40;;;;;;;31.20;13.05;;;21.60;43.80;;;;;;5033896;28;20053;-77
2022/03/22 10:44:11;;;;;;;25.60;13.63;;;21.30;44.50;;;;;;5049621;28;20041;-77
2022/03/22 10:46:42;;;;;;;27.05;13.88;;;21.10;44.90;;;;;;5042469;28;20049;-69
2022/03/22 10:49:13;;;;;;;19.30;12.63;;;21.10;44.80;;;;;;5049602;28;20560;-71
2022/03/22 10:51:46;;;;;;;22.60;12.63;;;20.90;44.40;;;;;;5051143;28;20052;-70
2022/03/22 10:54:18;;;;;;;24.25;13.45;;;20.60;44.60;;;;;;5050577;28;20077;-69
2022/03/22 10:56:49;;;;;;;22.58;13.43;;;20.10;45.10;;;;;;5032227;28;20972;-70
2022/03/22 10:59:20;;;;;;;18.27;12.77;;;20.20;45.40;;;;;;5030802;28;20049;-70
2022/03/22 11:01:50;;;;;;;24.17;13.33;;;20.50;44.90;;;;;;5032845;28;20496;-69
2022/03/22 11:04:19;;;;;;;19.98;13.52;;;20.60;44.70;;;;;;5050884;28;20315;-70
2022/03/22 11:06:48;;;;;;;24.45;13.63;;;20.40;45.50;;;;;;5049545;28;20099;-70
2022/03/22 11:09:16;;;;;;;19.08;13.63;;;20.20;45.40;;;;;;5049748;28;20473;-70
2022/03/22 11:11:45;;;;;;;22.50;13.65;;;19.80;45.40;;;;;;5047470;28;20068;-70
2022/03/22 11:14:17;;;;;;;22.67;12.80;;;19.70;45.70;;;;;;5030480;28;20054;-71
2022/03/22 11:16:48;;;;;;;23.27;14.60;;;19.50;46.10;;;;;;5020682;28;20145;-70
2022/03/22 11:19:18;;;;;;;25.98;13.98;;;19.20;45.50;;;;;;5048853;28;20072;-69
2022/03/22 11:21:48;;;;;;;23.90;13.27;;;18.50;46.20;;;;;;5042554;28;20045;-71
2022/03/22 11:24:25;;;;;;;30.67;13.70;;;18.60;45.70;;;;;;5048015;28;20049;-72
2022/03/22 11:26:56;;;;;;;20.67;14.35;;;18.90;45.30;;;;;;5049179;28;20041;-69
2022/03/22 11:29:26;;;;;;;30.88;15.77;;;19.10;45.10;;;;;;5030022;28;20055;-69
2022/03/22 11:34:41;;;;;;;31.45;12.80;;;20.10;44.10;;;;;;5038412;28;20064;-71
2022/03/22 11:37:09;;;;;;;19.80;12.57;;;20.80;42.70;;;;;;5051590;28;20041;-69
2022/03/22 11:42:25;;;;;;;24.65;13.02;;;21.30;41.10;;;;;;5039965;28;20086;-76
2022/03/22 11:44:59;;;;;;;16.45;11.85;;;21.60;40.10;;;;;;5054349;28;20558;-76
2022/03/22 11:47:40;;;;;;;28.85;13.20;;;21.60;39.80;;;;;;5047805;28;20621;-78
2022/03/22 11:50:11;;;;;;;23.35;12.02;;;21.80;39.90;;;;;;5052151;28;20852;-77
2022/03/22 11:52:41;;;;;;;16.40;11.35;;;21.90;39.20;;;;;;5055572;28;20048;-69
2022/03/22 11:55:13;;;;;;;21.15;12.43;;;21.80;38.80;;;;;;5042407;28;20144;-69
2022/03/22 11:57:47;;;;;;;28.38;12.93;;;21.20;39.60;;;;;;5054770;28;20059;-70
2022/03/22 12:00:19;;;;;;;25.08;13.02;;;21.00;40.20;;;;;;5036598;28;20040;-69
2022/03/22 12:02:52;;;;;;;19.85;13.23;;;20.80;40.60;;;;;;5060576;28;20049;-71
2022/03/22 12:05:20;;;;;;;23.15;12.90;;;20.60;40.70;;;;;;5046068;28;20044;-70
2022/03/22 12:07:48;;;;;;;24.50;13.23;;;20.20;40.80;;;;;;5052481;28;20045;-70
2022/03/22 12:10:18;;;;;;;21.50;13.07;;;20.10;41.80;;;;;;5050729;28;20144;-70
2022/03/22 12:12:49;;;;;;;29.08;13.88;;;20.30;41.10;;;;;;5034596;28;20143;-67
2022/03/22 12:15:23;;;;;;;28.63;12.32;;;20.70;40.60;;;;;;5035896;28;20049;-70
2022/03/22 12:17:52;;;;;;;18.85;11.95;;;21.10;39.80;;;;;;5053282;28;20128;-70
2022/03/22 12:20:22;;;;;;;19.17;13.07;;;21.70;39.10;;;;;;5050105;28;20041;-70
2022/03/22 12:22:52;;;;;;;20.40;12.57;;;22.10;38.10;;;;;;5062143;28;20057;-69
2022/03/22 12:25:24;;;;;;;24.63;12.50;;;22.30;38.00;;;;;;5050948;28;20067;-70
2022/03/22 12:27:53;;;;;;;16.48;11.65;;;22.00;38.00;;;;;;5052468;28;20044;-70
2022/03/22 12:30:25;;;;;;;21.80;13.02;;;21.50;38.50;;;;;;5038809;28;20041;-70
2022/03/22 12:32:54;;;;;;;17.27;12.30;;;21.00;40.20;;;;;;5055736;28;20080;-70
2022/03/22 12:35:23;;;;;;;20.40;13.27;;;20.40;40.40;;;;;;5047495;28;20071;-70
2022/03/22 12:37:52;;;;;;;29.52;14.30;;;20.10;40.60;;;;;;5053028;28;20084;-74
2022/03/22 12:40:21;;;;;;;23.00;14.68;;;19.50;41.30;;;;;;5052944;28;20041;-72
2022/03/22 12:42:50;;;;;;;25.92;14.90;;;18.70;42.70;;;;;;5051723;28;20089;-72
2022/03/22 12:45:21;;;;;;;27.13;14.68;;;18.20;43.00;;;;;;5034811;28;20049;-71
2022/03/22 12:47:49;;;;;;;23.50;15.38;;;17.80;43.00;;;;;;5032903;28;20110;-72
2022/03/22 12:50:18;;;;;;;24.92;15.65;;;17.80;43.40;;;;;;5032175;28;20429;-78
2022/03/22 12:52:46;;;;;;;24.15;15.57;;;17.60;42.30;;;;;;5035064;28;20095;-77
2022/03/22 12:55:17;;;;;;;33.47;16.90;;;17.60;42.00;;;;;;5037909;28;20509;-72
2022/03/22 12:57:48;;;;;;;21.98;16.38;;;18.00;40.80;;;;;;5053973;28;20057;-72
2022/03/22 13:00:28;;;;;;;23.83;15.43;;;18.50;40.40;;;;;;5059418;28;20052;-69
2022/03/22 13:02:57;;;;;;;23.88;15.98;;;19.30;39.10;;;;;;5052282;28;20068;-71
2022/03/22 13:05:27;;;;;;;26.27;16.10;;;19.90;37.50;;;;;;5048405;28;20525;-70
2022/03/22 13:07:56;;;;;;;28.17;18.02;;;20.20;37.50;;;;;;5051712;28;20379;-71
2022/03/22 13:13:24;;;;;;;20.20;16.52;;;20.60;36.30;;;;;;4979005;28;20160;-71
2022/03/22 13:15:52;;;;;;;26.80;16.58;;;20.60;37.20;;;;;;4984130;28;20521;-72
2022/03/22 13:18:19;;;;;;;22.98;14.30;;;20.90;37.00;;;;;;4979489;28;20090;-72
2022/03/22 13:20:47;;;;;;;19.88;14.20;;;21.50;36.20;;;;;;5059368;28;20048;-70